YM Venus — 9HCB8 — position and weather

sailwx.info

Track history (hours):
 
Tides and Currents Weather Stations Pressure Air Temp Water Temp Dewpoint Dewpoint Depression Visibility Wind Speed Wind Dir Waves Ship Positions

YM Venus

Last reported at 2014-Oct-18 21:19 UTC. Time now 2014-Oct-24 21:19 UTC.
Position N 36°22' E 026°50'.

Length 105 m; draft 5 m.

Type: Tanker. MMSI: 215826000.

Date/timePositionNaut miles runAvg speedWind from/ knotsBaromVisibWave heightAir tempDewpointWater temp
2014-Oct-18 21:19N 36°22' E 026°50'1211.9
2014-Oct-18 20:19N 36°31' E 026°41'911.9
2014-Oct-18 19:32N 36°38' E 026°33'1212.1
2014-Oct-18 18:33N 36°47' E 026°23'1312.5
2014-Oct-18 17:29N 36°57' E 026°12'1212.6
2014-Oct-18 16:33N 37°07' E 026°05'1312.6
2014-Oct-18 15:33N 37°18' E 025°57'1312.8
2014-Oct-18 14:33N 37°30' E 025°50'1312.7
2014-Oct-18 13:33N 37°40' E 025°41'1312.5
2014-Oct-18 12:33N 37°51' E 025°33'1212.1
2014-Oct-18 11:33N 38°02' E 025°26'9910.7
2014-Oct-18 02:13N 39°40' E 025°45'68 6.8
2014-Oct-17 16:05N 40°28' E 026°49'  
2014-Oct-14 16:26N 39°53' E 025°54'  
2014-Oct-12 10:24N 37°50' E 024°33'1910.1
2014-Oct-12 08:33N 37°32' E 024°24'1110.9
2014-Oct-12 07:33N 37°23' E 024°17'1111.3
2014-Oct-12 06:32N 37°14' E 024°08'3311.0
2014-Oct-12 03:32N 36°49' E 023°41'1411.0
2014-Oct-12 02:16N 36°38' E 023°30'  
Track history (hours):
 
Tides and Currents Weather Stations Pressure Air Temp Water Temp Dewpoint Dewpoint Depression Visibility Wind Speed Wind Dir Waves Ship Positions

YM Venus

Last reported at 2014-Oct-18 21:19 UTC. Time now 2014-Oct-24 21:19 UTC.
Position N 36°22' E 026°50'.

Length 105 m; draft 5 m.

Type: Tanker. MMSI: 215826000.

Date/timePositionNaut miles runAvg speedWind from/ knotsBaromVisibWave heightAir tempDewpointWater temp
2014-Oct-18 21:19N 36°22' E 026°50'1211.9
2014-Oct-18 20:19N 36°31' E 026°41'911.9
2014-Oct-18 19:32N 36°38' E 026°33'1212.1
2014-Oct-18 18:33N 36°47' E 026°23'1312.5
2014-Oct-18 17:29N 36°57' E 026°12'1212.6
2014-Oct-18 16:33N 37°07' E 026°05'1312.6
2014-Oct-18 15:33N 37°18' E 025°57'1312.8
2014-Oct-18 14:33N 37°30' E 025°50'1312.7
2014-Oct-18 13:33N 37°40' E 025°41'1312.5
2014-Oct-18 12:33N 37°51' E 025°33'1212.1
2014-Oct-18 11:33N 38°02' E 025°26'9910.7
2014-Oct-18 02:13N 39°40' E 025°45'68 6.8
2014-Oct-17 16:05N 40°28' E 026°49'  
2014-Oct-14 16:26N 39°53' E 025°54'  
2014-Oct-12 10:24N 37°50' E 024°33'1910.1
2014-Oct-12 08:33N 37°32' E 024°24'1110.9
2014-Oct-12 07:33N 37°23' E 024°17'1111.3
2014-Oct-12 06:32N 37°14' E 024°08'3311.0
2014-Oct-12 03:32N 36°49' E 023°41'1411.0
2014-Oct-12 02:16N 36°38' E 023°30'  

Dump ship's entire track history